sensor_id;sensor_type;location;lat;lon;timestamp;P1;durP1;ratioP1;P2;durP2;ratioP2
40609;SDS011;26316;55.976;37.140;2022-07-03T00:00:41;6.13;;;3.97;;
40609;SDS011;26316;55.976;37.140;2022-07-03T00:03:06;4.70;;;3.33;;
40609;SDS011;26316;55.976;37.140;2022-07-03T00:05:32;3.28;;;2.92;;
40609;SDS011;26316;55.976;37.140;2022-07-03T00:07:58;4.22;;;3.67;;
40609;SDS011;26316;55.976;37.140;2022-07-03T00:10:24;5.28;;;3.22;;
40609;SDS011;26316;55.976;37.140;2022-07-03T00:12:49;5.03;;;3.83;;
40609;SDS011;26316;55.976;37.140;2022-07-03T00:15:15;4.82;;;3.35;;
40609;SDS011;26316;55.976;37.140;2022-07-03T00:17:41;5.40;;;2.80;;
40609;SDS011;26316;55.976;37.140;2022-07-03T00:20:07;4.35;;;3.10;;
40609;SDS011;26316;55.976;37.140;2022-07-03T00:22:33;5.95;;;3.38;;
40609;SDS011;26316;55.976;37.140;2022-07-03T00:27:30;4.70;;;3.33;;
40609;SDS011;26316;55.976;37.140;2022-07-03T00:29:59;5.40;;;3.10;;
40609;SDS011;26316;55.976;37.140;2022-07-03T00:32:28;4.70;;;3.10;;
40609;SDS011;26316;55.976;37.140;2022-07-03T00:34:55;5.45;;;3.20;;
40609;SDS011;26316;55.976;37.140;2022-07-03T00:37:22;4.07;;;3.25;;
40609;SDS011;26316;55.976;37.140;2022-07-03T00:39:49;3.85;;;3.17;;
40609;SDS011;26316;55.976;37.140;2022-07-03T00:42:15;4.78;;;3.15;;
40609;SDS011;26316;55.976;37.140;2022-07-03T00:44:46;7.43;;;3.45;;
40609;SDS011;26316;55.976;37.140;2022-07-03T00:47:23;3.63;;;3.30;;
40609;SDS011;26316;55.976;37.140;2022-07-03T00:49:54;3.80;;;3.20;;
40609;SDS011;26316;55.976;37.140;2022-07-03T00:52:22;3.30;;;3.05;;
40609;SDS011;26316;55.976;37.140;2022-07-03T00:54:53;3.80;;;3.42;;
40609;SDS011;26316;55.976;37.140;2022-07-03T00:57:20;5.68;;;3.17;;
40609;SDS011;26316;55.976;37.140;2022-07-03T00:59:47;6.05;;;3.25;;
40609;SDS011;26316;55.976;37.140;2022-07-03T01:08:13;4.38;;;2.88;;
40609;SDS011;26316;55.976;37.140;2022-07-03T01:21:35;4.20;;;3.30;;
40609;SDS011;26316;55.976;37.140;2022-07-03T01:24:16;6.30;;;3.38;;
40609;SDS011;26316;55.976;37.140;2022-07-03T01:26:50;3.58;;;3.03;;
40609;SDS011;26316;55.976;37.140;2022-07-03T01:29:31;3.50;;;3.05;;
40609;SDS011;26316;55.976;37.140;2022-07-03T01:32:19;4.63;;;2.80;;
40609;SDS011;26316;55.976;37.140;2022-07-03T01:34:45;5.13;;;2.95;;
40609;SDS011;26316;55.976;37.140;2022-07-03T01:37:14;5.40;;;3.08;;
40609;SDS011;26316;55.976;37.140;2022-07-03T01:39:41;6.07;;;3.08;;
40609;SDS011;26316;55.976;37.140;2022-07-03T01:42:08;6.15;;;3.33;;
40609;SDS011;26316;55.976;37.140;2022-07-03T01:44:34;4.50;;;3.20;;
40609;SDS011;26316;55.976;37.140;2022-07-03T01:47:00;3.40;;;3.00;;
40609;SDS011;26316;55.976;37.140;2022-07-03T01:49:27;6.60;;;2.95;;
40609;SDS011;26316;55.976;37.140;2022-07-03T01:51:53;3.67;;;2.88;;
40609;SDS011;26316;55.976;37.140;2022-07-03T01:54:20;3.95;;;2.58;;
40609;SDS011;26316;55.976;37.140;2022-07-03T01:56:47;6.32;;;2.92;;
40609;SDS011;26316;55.976;37.140;2022-07-03T01:59:13;3.10;;;2.90;;
40609;SDS011;26316;55.976;37.140;2022-07-03T02:01:51;2.55;;;2.40;;
40609;SDS011;26316;55.976;37.140;2022-07-03T02:04:34;3.70;;;2.97;;
40609;SDS011;26316;55.976;37.140;2022-07-03T02:09:44;5.82;;;3.00;;
40609;SDS011;26316;55.976;37.140;2022-07-03T02:12:13;4.88;;;3.35;;
40609;SDS011;26316;55.976;37.140;2022-07-03T02:14:39;2.78;;;2.58;;
40609;SDS011;26316;55.976;37.140;2022-07-03T02:22:15;2.90;;;2.70;;
40609;SDS011;26316;55.976;37.140;2022-07-03T02:24:44;4.07;;;3.22;;
40609;SDS011;26316;55.976;37.140;2022-07-03T02:27:22;3.50;;;3.15;;
40609;SDS011;26316;55.976;37.140;2022-07-03T02:29:51;3.38;;;2.92;;
40609;SDS011;26316;55.976;37.140;2022-07-03T02:32:22;3.28;;;2.65;;
40609;SDS011;26316;55.976;37.140;2022-07-03T02:34:55;5.50;;;2.80;;
40609;SDS011;26316;55.976;37.140;2022-07-03T02:37:30;5.07;;;3.53;;
40609;SDS011;26316;55.976;37.140;2022-07-03T02:40:06;6.83;;;2.80;;
40609;SDS011;26316;55.976;37.140;2022-07-03T02:42:45;3.58;;;3.20;;
40609;SDS011;26316;55.976;37.140;2022-07-03T02:45:25;5.00;;;2.75;;
40609;SDS011;26316;55.976;37.140;2022-07-03T02:50:29;6.35;;;5.00;;
40609;SDS011;26316;55.976;37.140;2022-07-03T02:53:04;6.03;;;3.40;;
40609;SDS011;26316;55.976;37.140;2022-07-03T02:55:42;4.93;;;3.00;;
40609;SDS011;26316;55.976;37.140;2022-07-03T03:01:07;3.13;;;2.83;;
40609;SDS011;26316;55.976;37.140;2022-07-03T03:04:07;3.28;;;3.00;;
40609;SDS011;26316;55.976;37.140;2022-07-03T03:06:35;3.47;;;2.95;;
40609;SDS011;26316;55.976;37.140;2022-07-03T03:09:03;4.55;;;3.00;;
40609;SDS011;26316;55.976;37.140;2022-07-03T03:11:43;6.35;;;3.53;;
40609;SDS011;26316;55.976;37.140;2022-07-03T03:14:14;3.72;;;3.40;;
40609;SDS011;26316;55.976;37.140;2022-07-03T03:16:47;3.55;;;2.90;;
40609;SDS011;26316;55.976;37.140;2022-07-03T03:19:15;4.53;;;3.20;;
40609;SDS011;26316;55.976;37.140;2022-07-03T03:21:56;5.22;;;3.03;;
40609;SDS011;26316;55.976;37.140;2022-07-03T03:24:24;6.60;;;3.10;;
40609;SDS011;26316;55.976;37.140;2022-07-03T03:26:51;4.85;;;3.35;;
40609;SDS011;26316;55.976;37.140;2022-07-03T03:29:17;5.82;;;3.20;;
40609;SDS011;26316;55.976;37.140;2022-07-03T03:31:42;5.32;;;3.60;;
40609;SDS011;26316;55.976;37.140;2022-07-03T03:34:08;5.60;;;4.45;;
40609;SDS011;26316;55.976;37.140;2022-07-03T03:36:35;4.22;;;3.35;;
40609;SDS011;26316;55.976;37.140;2022-07-03T03:39:00;3.97;;;3.42;;
40609;SDS011;26316;55.976;37.140;2022-07-03T03:41:26;3.88;;;3.53;;
40609;SDS011;26316;55.976;37.140;2022-07-03T03:43:54;4.70;;;3.70;;
40609;SDS011;26316;55.976;37.140;2022-07-03T03:46:20;4.07;;;3.42;;
40609;SDS011;26316;55.976;37.140;2022-07-03T03:48:46;6.55;;;3.58;;
40609;SDS011;26316;55.976;37.140;2022-07-03T03:51:12;3.92;;;3.60;;
40609;SDS011;26316;55.976;37.140;2022-07-03T03:53:38;6.20;;;3.70;;
40609;SDS011;26316;55.976;37.140;2022-07-03T03:56:08;4.10;;;3.45;;
40609;SDS011;26316;55.976;37.140;2022-07-03T03:58:37;18.17;;;3.80;;
40609;SDS011;26316;55.976;37.140;2022-07-03T04:01:04;9.55;;;4.50;;
40609;SDS011;26316;55.976;37.140;2022-07-03T04:03:31;7.45;;;4.53;;
40609;SDS011;26316;55.976;37.140;2022-07-03T04:06:03;4.15;;;3.80;;
40609;SDS011;26316;55.976;37.140;2022-07-03T04:08:29;5.38;;;3.88;;
40609;SDS011;26316;55.976;37.140;2022-07-03T04:10:56;4.95;;;3.90;;
40609;SDS011;26316;55.976;37.140;2022-07-03T04:13:22;4.18;;;3.80;;
40609;SDS011;26316;55.976;37.140;2022-07-03T04:15:51;4.45;;;3.88;;
40609;SDS011;26316;55.976;37.140;2022-07-03T04:18:17;5.70;;;4.20;;
40609;SDS011;26316;55.976;37.140;2022-07-03T04:20:43;5.00;;;4.13;;
40609;SDS011;26316;55.976;37.140;2022-07-03T04:23:09;8.48;;;4.30;;
40609;SDS011;26316;55.976;37.140;2022-07-03T04:25:35;8.20;;;4.07;;
40609;SDS011;26316;55.976;37.140;2022-07-03T04:28:01;9.35;;;4.40;;
40609;SDS011;26316;55.976;37.140;2022-07-03T04:30:27;5.85;;;4.22;;
40609;SDS011;26316;55.976;37.140;2022-07-03T04:32:52;6.88;;;4.70;;
40609;SDS011;26316;55.976;37.140;2022-07-03T04:35:18;6.22;;;4.97;;
40609;SDS011;26316;55.976;37.140;2022-07-03T04:37:44;7.40;;;5.20;;
40609;SDS011;26316;55.976;37.140;2022-07-03T04:40:10;8.07;;;6.10;;
40609;SDS011;26316;55.976;37.140;2022-07-03T04:42:37;7.25;;;5.20;;
40609;SDS011;26316;55.976;37.140;2022-07-03T04:45:03;10.93;;;5.80;;
40609;SDS011;26316;55.976;37.140;2022-07-03T04:47:29;7.60;;;4.93;;
40609;SDS011;26316;55.976;37.140;2022-07-03T04:49:55;5.97;;;5.38;;
40609;SDS011;26316;55.976;37.140;2022-07-03T04:52:21;5.97;;;5.38;;
40609;SDS011;26316;55.976;37.140;2022-07-03T04:54:47;6.90;;;5.00;;
40609;SDS011;26316;55.976;37.140;2022-07-03T04:57:13;7.18;;;5.32;;
40609;SDS011;26316;55.976;37.140;2022-07-03T04:59:38;8.40;;;6.53;;
40609;SDS011;26316;55.976;37.140;2022-07-03T05:02:04;5.72;;;5.22;;
40609;SDS011;26316;55.976;37.140;2022-07-03T05:04:30;6.28;;;4.80;;
40609;SDS011;26316;55.976;37.140;2022-07-03T05:06:55;8.77;;;4.68;;
40609;SDS011;26316;55.976;37.140;2022-07-03T05:09:21;7.05;;;5.25;;
40609;SDS011;26316;55.976;37.140;2022-07-03T05:11:47;8.25;;;5.90;;
40609;SDS011;26316;55.976;37.140;2022-07-03T05:14:13;7.78;;;5.05;;
40609;SDS011;26316;55.976;37.140;2022-07-03T05:16:38;7.43;;;5.25;;
40609;SDS011;26316;55.976;37.140;2022-07-03T05:19:04;7.68;;;5.45;;
40609;SDS011;26316;55.976;37.140;2022-07-03T05:21:30;13.70;;;12.32;;
40609;SDS011;26316;55.976;37.140;2022-07-03T05:23:57;9.65;;;5.50;;
40609;SDS011;26316;55.976;37.140;2022-07-03T05:26:23;11.88;;;6.28;;
40609;SDS011;26316;55.976;37.140;2022-07-03T05:28:48;10.88;;;5.88;;
40609;SDS011;26316;55.976;37.140;2022-07-03T05:31:14;6.43;;;5.82;;
40609;SDS011;26316;55.976;37.140;2022-07-03T05:33:40;10.60;;;5.68;;
40609;SDS011;26316;55.976;37.140;2022-07-03T05:36:06;6.38;;;5.43;;
40609;SDS011;26316;55.976;37.140;2022-07-03T05:38:32;8.45;;;5.38;;
40609;SDS011;26316;55.976;37.140;2022-07-03T05:41:17;6.82;;;5.82;;
40609;SDS011;26316;55.976;37.140;2022-07-03T05:43:43;10.13;;;5.57;;
40609;SDS011;26316;55.976;37.140;2022-07-03T05:46:08;23.92;;;5.72;;
40609;SDS011;26316;55.976;37.140;2022-07-03T05:48:34;11.13;;;6.13;;
40609;SDS011;26316;55.976;37.140;2022-07-03T05:51:00;9.18;;;6.10;;
40609;SDS011;26316;55.976;37.140;2022-07-03T05:53:25;6.15;;;5.40;;
40609;SDS011;26316;55.976;37.140;2022-07-03T05:55:51;10.77;;;5.75;;
40609;SDS011;26316;55.976;37.140;2022-07-03T05:58:17;10.10;;;6.18;;
40609;SDS011;26316;55.976;37.140;2022-07-03T06:00:43;9.48;;;5.07;;
40609;SDS011;26316;55.976;37.140;2022-07-03T06:03:09;8.80;;;6.22;;
40609;SDS011;26316;55.976;37.140;2022-07-03T06:05:35;11.82;;;6.20;;
40609;SDS011;26316;55.976;37.140;2022-07-03T06:08:01;8.35;;;6.55;;
40609;SDS011;26316;55.976;37.140;2022-07-03T06:10:28;9.00;;;5.70;;
40609;SDS011;26316;55.976;37.140;2022-07-03T06:12:54;8.82;;;5.40;;
40609;SDS011;26316;55.976;37.140;2022-07-03T06:15:20;13.88;;;5.43;;
40609;SDS011;26316;55.976;37.140;2022-07-03T06:17:48;10.02;;;5.53;;
40609;SDS011;26316;55.976;37.140;2022-07-03T06:20:14;8.02;;;6.03;;
40609;SDS011;26316;55.976;37.140;2022-07-03T06:22:40;8.50;;;6.20;;
40609;SDS011;26316;55.976;37.140;2022-07-03T06:25:06;6.25;;;5.65;;
40609;SDS011;26316;55.976;37.140;2022-07-03T06:27:34;8.25;;;5.72;;
40609;SDS011;26316;55.976;37.140;2022-07-03T06:30:00;5.72;;;5.25;;
40609;SDS011;26316;55.976;37.140;2022-07-03T06:32:29;9.57;;;8.68;;
40609;SDS011;26316;55.976;37.140;2022-07-03T06:34:55;12.02;;;6.65;;
40609;SDS011;26316;55.976;37.140;2022-07-03T06:37:21;6.90;;;6.20;;
40609;SDS011;26316;55.976;37.140;2022-07-03T06:39:49;7.38;;;5.97;;
40609;SDS011;26316;55.976;37.140;2022-07-03T06:42:15;7.97;;;7.28;;
40609;SDS011;26316;55.976;37.140;2022-07-03T06:44:42;8.23;;;7.47;;
40609;SDS011;26316;55.976;37.140;2022-07-03T06:47:10;11.90;;;8.35;;
40609;SDS011;26316;55.976;37.140;2022-07-03T06:49:35;7.45;;;6.75;;
40609;SDS011;26316;55.976;37.140;2022-07-03T06:52:01;7.35;;;6.18;;
40609;SDS011;26316;55.976;37.140;2022-07-03T06:54:27;9.55;;;6.63;;
40609;SDS011;26316;55.976;37.140;2022-07-03T06:56:55;6.90;;;6.30;;
40609;SDS011;26316;55.976;37.140;2022-07-03T06:59:21;17.60;;;6.18;;
40609;SDS011;26316;55.976;37.140;2022-07-03T07:01:46;7.53;;;6.82;;
40609;SDS011;26316;55.976;37.140;2022-07-03T07:04:12;6.75;;;6.07;;
40609;SDS011;26316;55.976;37.140;2022-07-03T07:06:38;6.43;;;5.93;;
40609;SDS011;26316;55.976;37.140;2022-07-03T07:09:06;9.40;;;6.07;;
40609;SDS011;26316;55.976;37.140;2022-07-03T07:11:32;6.93;;;5.95;;
40609;SDS011;26316;55.976;37.140;2022-07-03T07:13:58;7.35;;;6.03;;
40609;SDS011;26316;55.976;37.140;2022-07-03T07:16:24;8.18;;;5.75;;
40609;SDS011;26316;55.976;37.140;2022-07-03T07:18:50;8.48;;;5.90;;
40609;SDS011;26316;55.976;37.140;2022-07-03T07:21:15;8.38;;;5.72;;
40609;SDS011;26316;55.976;37.140;2022-07-03T07:23:41;6.47;;;5.93;;
40609;SDS011;26316;55.976;37.140;2022-07-03T07:26:07;6.10;;;5.60;;
40609;SDS011;26316;55.976;37.140;2022-07-03T07:28:33;9.55;;;5.60;;
40609;SDS011;26316;55.976;37.140;2022-07-03T07:31:00;7.03;;;5.50;;
40609;SDS011;26316;55.976;37.140;2022-07-03T07:33:27;5.88;;;5.28;;
40609;SDS011;26316;55.976;37.140;2022-07-03T07:35:52;6.28;;;5.63;;
40609;SDS011;26316;55.976;37.140;2022-07-03T07:38:18;6.80;;;5.50;;
40609;SDS011;26316;55.976;37.140;2022-07-03T07:40:44;5.88;;;5.22;;
40609;SDS011;26316;55.976;37.140;2022-07-03T07:43:10;7.40;;;5.47;;
40609;SDS011;26316;55.976;37.140;2022-07-03T07:45:35;5.32;;;4.82;;
40609;SDS011;26316;55.976;37.140;2022-07-03T07:48:01;7.90;;;5.50;;
40609;SDS011;26316;55.976;37.140;2022-07-03T07:50:27;6.10;;;5.47;;
40609;SDS011;26316;55.976;37.140;2022-07-03T07:52:53;6.07;;;5.47;;
40609;SDS011;26316;55.976;37.140;2022-07-03T07:55:19;9.27;;;5.65;;
40609;SDS011;26316;55.976;37.140;2022-07-03T07:57:45;6.90;;;5.38;;
40609;SDS011;26316;55.976;37.140;2022-07-03T08:00:12;5.63;;;5.10;;
40609;SDS011;26316;55.976;37.140;2022-07-03T08:02:39;5.38;;;4.88;;
40609;SDS011;26316;55.976;37.140;2022-07-03T08:05:24;5.80;;;5.13;;
40609;SDS011;26316;55.976;37.140;2022-07-03T08:08:09;4.38;;;4.07;;
40609;SDS011;26316;55.976;37.140;2022-07-03T08:10:45;6.63;;;4.15;;
40609;SDS011;26316;55.976;37.140;2022-07-03T08:13:16;4.80;;;4.05;;
40609;SDS011;26316;55.976;37.140;2022-07-03T08:15:45;8.98;;;5.05;;
40609;SDS011;26316;55.976;37.140;2022-07-03T08:18:12;5.10;;;4.22;;
40609;SDS011;26316;55.976;37.140;2022-07-03T08:20:38;4.88;;;3.83;;
40609;SDS011;26316;55.976;37.140;2022-07-03T08:23:04;5.35;;;4.10;;
40609;SDS011;26316;55.976;37.140;2022-07-03T08:25:30;4.13;;;3.80;;
40609;SDS011;26316;55.976;37.140;2022-07-03T08:27:56;5.05;;;3.90;;
40609;SDS011;26316;55.976;37.140;2022-07-03T08:30:23;5.28;;;3.67;;
40609;SDS011;26316;55.976;37.140;2022-07-03T08:32:49;4.82;;;4.28;;
40609;SDS011;26316;55.976;37.140;2022-07-03T08:35:16;5.80;;;3.55;;
40609;SDS011;26316;55.976;37.140;2022-07-03T08:37:42;5.88;;;3.55;;
40609;SDS011;26316;55.976;37.140;2022-07-03T08:40:12;5.55;;;3.40;;
40609;SDS011;26316;55.976;37.140;2022-07-03T08:42:42;4.35;;;3.20;;
40609;SDS011;26316;55.976;37.140;2022-07-03T08:45:15;3.88;;;3.58;;
40609;SDS011;26316;55.976;37.140;2022-07-03T08:47:45;5.15;;;3.47;;
40609;SDS011;26316;55.976;37.140;2022-07-03T08:52:38;3.45;;;3.25;;
40609;SDS011;26316;55.976;37.140;2022-07-03T08:55:04;4.90;;;3.92;;
40609;SDS011;26316;55.976;37.140;2022-07-03T08:57:31;3.40;;;3.20;;
40609;SDS011;26316;55.976;37.140;2022-07-03T08:59:58;5.45;;;3.90;;
40609;SDS011;26316;55.976;37.140;2022-07-03T09:02:27;7.82;;;5.43;;
40609;SDS011;26316;55.976;37.140;2022-07-03T09:04:52;4.60;;;3.70;;
40609;SDS011;26316;55.976;37.140;2022-07-03T09:07:18;5.13;;;3.83;;
40609;SDS011;26316;55.976;37.140;2022-07-03T09:09:44;4.53;;;3.38;;
40609;SDS011;26316;55.976;37.140;2022-07-03T09:12:13;14.77;;;3.50;;
40609;SDS011;26316;55.976;37.140;2022-07-03T09:14:39;3.60;;;3.33;;
40609;SDS011;26316;55.976;37.140;2022-07-03T09:17:07;3.58;;;3.28;;
40609;SDS011;26316;55.976;37.140;2022-07-03T09:19:45;5.90;;;3.80;;
40609;SDS011;26316;55.976;37.140;2022-07-03T09:22:19;6.53;;;4.35;;
40609;SDS011;26316;55.976;37.140;2022-07-03T09:27:48;3.80;;;3.45;;
40609;SDS011;26316;55.976;37.140;2022-07-03T09:30:16;4.93;;;3.22;;
40609;SDS011;26316;55.976;37.140;2022-07-03T09:32:43;6.57;;;3.45;;
40609;SDS011;26316;55.976;37.140;2022-07-03T09:35:13;8.13;;;3.72;;
40609;SDS011;26316;55.976;37.140;2022-07-03T09:37:59;5.55;;;3.45;;
40609;SDS011;26316;55.976;37.140;2022-07-03T09:40:28;3.83;;;3.33;;
40609;SDS011;26316;55.976;37.140;2022-07-03T09:43:11;3.95;;;3.55;;
40609;SDS011;26316;55.976;37.140;2022-07-03T09:45:51;3.88;;;3.53;;
40609;SDS011;26316;55.976;37.140;2022-07-03T09:48:41;3.45;;;3.25;;
40609;SDS011;26316;55.976;37.140;2022-07-03T09:53:56;4.25;;;3.38;;
40609;SDS011;26316;55.976;37.140;2022-07-03T09:56:24;8.43;;;3.00;;
40609;SDS011;26316;55.976;37.140;2022-07-03T10:01:44;3.15;;;2.95;;
40609;SDS011;26316;55.976;37.140;2022-07-03T10:04:17;3.75;;;2.88;;
40609;SDS011;26316;55.976;37.140;2022-07-03T10:09:14;6.50;;;5.72;;
40609;SDS011;26316;55.976;37.140;2022-07-03T10:11:42;3.08;;;2.88;;
40609;SDS011;26316;55.976;37.140;2022-07-03T10:14:10;4.35;;;2.50;;
40609;SDS011;26316;55.976;37.140;2022-07-03T10:16:39;4.20;;;2.30;;
40609;SDS011;26316;55.976;37.140;2022-07-03T10:19:05;3.33;;;2.53;;
40609;SDS011;26316;55.976;37.140;2022-07-03T10:21:32;4.18;;;2.60;;
40609;SDS011;26316;55.976;37.140;2022-07-03T10:24:01;7.13;;;3.08;;
40609;SDS011;26316;55.976;37.140;2022-07-03T10:26:28;3.38;;;3.08;;
40609;SDS011;26316;55.976;37.140;2022-07-03T10:28:54;5.50;;;2.70;;
40609;SDS011;26316;55.976;37.140;2022-07-03T10:31:21;3.30;;;2.28;;
40609;SDS011;26316;55.976;37.140;2022-07-03T10:33:47;7.57;;;2.15;;
40609;SDS011;26316;55.976;37.140;2022-07-03T10:36:12;3.03;;;2.38;;
40609;SDS011;26316;55.976;37.140;2022-07-03T10:38:39;4.47;;;2.17;;
40609;SDS011;26316;55.976;37.140;2022-07-03T10:41:16;7.43;;;2.40;;
40609;SDS011;26316;55.976;37.140;2022-07-03T10:44:05;4.03;;;2.42;;
40609;SDS011;26316;55.976;37.140;2022-07-03T10:46:50;3.15;;;2.35;;
40609;SDS011;26316;55.976;37.140;2022-07-03T10:49:15;3.55;;;2.40;;
40609;SDS011;26316;55.976;37.140;2022-07-03T10:54:18;4.60;;;2.63;;
40609;SDS011;26316;55.976;37.140;2022-07-03T11:07:23;4.95;;;2.97;;
40609;SDS011;26316;55.976;37.140;2022-07-03T11:15:28;3.05;;;2.40;;
40609;SDS011;26316;55.976;37.140;2022-07-03T11:25:40;5.10;;;2.40;;
40609;SDS011;26316;55.976;37.140;2022-07-03T11:36:31;2.80;;;2.00;;
40609;SDS011;26316;55.976;37.140;2022-07-03T11:41:29;2.08;;;1.98;;
40609;SDS011;26316;55.976;37.140;2022-07-03T11:43:59;2.30;;;2.10;;
40609;SDS011;26316;55.976;37.140;2022-07-03T11:46:28;2.47;;;2.20;;
40609;SDS011;26316;55.976;37.140;2022-07-03T11:51:32;6.45;;;2.42;;
40609;SDS011;26316;55.976;37.140;2022-07-03T11:54:01;3.80;;;2.30;;
40609;SDS011;26316;55.976;37.140;2022-07-03T11:56:27;2.20;;;2.10;;
40609;SDS011;26316;55.976;37.140;2022-07-03T11:58:54;8.50;;;2.30;;
40609;SDS011;26316;55.976;37.140;2022-07-03T12:06:42;2.42;;;2.22;;
40609;SDS011;26316;55.976;37.140;2022-07-03T12:09:30;2.30;;;2.10;;
40609;SDS011;26316;55.976;37.140;2022-07-03T12:12:01;2.53;;;2.20;;
40609;SDS011;26316;55.976;37.140;2022-07-03T12:17:17;2.33;;;2.13;;
40609;SDS011;26316;55.976;37.140;2022-07-03T12:19:57;7.88;;;2.30;;
40609;SDS011;26316;55.976;37.140;2022-07-03T12:25:02;2.42;;;2.20;;
40609;SDS011;26316;55.976;37.140;2022-07-03T12:27:40;2.38;;;1.83;;
40609;SDS011;26316;55.976;37.140;2022-07-03T12:30:07;2.80;;;2.22;;
40609;SDS011;26316;55.976;37.140;2022-07-03T12:32:34;2.20;;;2.10;;
40609;SDS011;26316;55.976;37.140;2022-07-03T12:35:01;2.33;;;1.83;;
40609;SDS011;26316;55.976;37.140;2022-07-03T12:40:03;2.75;;;2.35;;
40609;SDS011;26316;55.976;37.140;2022-07-03T12:42:31;2.08;;;1.85;;
40609;SDS011;26316;55.976;37.140;2022-07-03T12:45:11;2.15;;;2.05;;
40609;SDS011;26316;55.976;37.140;2022-07-03T12:47:38;2.17;;;1.88;;
40609;SDS011;26316;55.976;37.140;2022-07-03T12:50:05;2.25;;;2.05;;
40609;SDS011;26316;55.976;37.140;2022-07-03T12:52:32;2.38;;;1.95;;
40609;SDS011;26316;55.976;37.140;2022-07-03T12:55:00;2.53;;;2.20;;
40609;SDS011;26316;55.976;37.140;2022-07-03T12:57:29;6.38;;;2.28;;
40609;SDS011;26316;55.976;37.140;2022-07-03T13:00:16;3.97;;;2.17;;
40609;SDS011;26316;55.976;37.140;2022-07-03T13:02:44;2.28;;;2.17;;
40609;SDS011;26316;55.976;37.140;2022-07-03T13:07:44;2.63;;;2.20;;
40609;SDS011;26316;55.976;37.140;2022-07-03T13:10:11;2.58;;;2.38;;
40609;SDS011;26316;55.976;37.140;2022-07-03T13:12:46;3.33;;;2.13;;
40609;SDS011;26316;55.976;37.140;2022-07-03T13:15:14;2.17;;;2.05;;
40609;SDS011;26316;55.976;37.140;2022-07-03T13:20:40;3.00;;;2.03;;
40609;SDS011;26316;55.976;37.140;2022-07-03T13:23:05;2.42;;;1.95;;
40609;SDS011;26316;55.976;37.140;2022-07-03T13:25:32;2.25;;;2.13;;
40609;SDS011;26316;55.976;37.140;2022-07-03T13:30:31;3.53;;;2.50;;
40609;SDS011;26316;55.976;37.140;2022-07-03T13:32:56;4.80;;;4.03;;
40609;SDS011;26316;55.976;37.140;2022-07-03T13:35:22;5.07;;;3.33;;
40609;SDS011;26316;55.976;37.140;2022-07-03T13:37:48;2.30;;;1.90;;
40609;SDS011;26316;55.976;37.140;2022-07-03T13:40:13;2.97;;;1.88;;
40609;SDS011;26316;55.976;37.140;2022-07-03T13:42:39;5.63;;;2.40;;
40609;SDS011;26316;55.976;37.140;2022-07-03T13:45:05;2.40;;;2.20;;
40609;SDS011;26316;55.976;37.140;2022-07-03T13:47:31;2.05;;;1.95;;
40609;SDS011;26316;55.976;37.140;2022-07-03T13:49:57;3.45;;;2.03;;
40609;SDS011;26316;55.976;37.140;2022-07-03T13:52:23;2.85;;;2.17;;
40609;SDS011;26316;55.976;37.140;2022-07-03T13:54:48;5.93;;;5.32;;
40609;SDS011;26316;55.976;37.140;2022-07-03T13:57:14;4.63;;;2.22;;
40609;SDS011;26316;55.976;37.140;2022-07-03T13:59:40;3.92;;;1.98;;
40609;SDS011;26316;55.976;37.140;2022-07-03T14:02:06;3.13;;;1.70;;
40609;SDS011;26316;55.976;37.140;2022-07-03T14:04:31;1.55;;;1.45;;
40609;SDS011;26316;55.976;37.140;2022-07-03T14:06:57;2.65;;;2.45;;
40609;SDS011;26316;55.976;37.140;2022-07-03T14:09:26;3.15;;;1.77;;
40609;SDS011;26316;55.976;37.140;2022-07-03T14:11:52;1.90;;;1.80;;
40609;SDS011;26316;55.976;37.140;2022-07-03T14:14:18;3.08;;;1.83;;
40609;SDS011;26316;55.976;37.140;2022-07-03T14:16:44;3.88;;;2.00;;
40609;SDS011;26316;55.976;37.140;2022-07-03T14:19:09;1.80;;;1.50;;
40609;SDS011;26316;55.976;37.140;2022-07-03T14:21:35;1.98;;;1.80;;
40609;SDS011;26316;55.976;37.140;2022-07-03T14:24:01;2.67;;;1.90;;
40609;SDS011;26316;55.976;37.140;2022-07-03T14:26:29;2.72;;;2.50;;
40609;SDS011;26316;55.976;37.140;2022-07-03T14:29:13;4.70;;;4.22;;
40609;SDS011;26316;55.976;37.140;2022-07-03T14:31:57;4.25;;;2.08;;
40609;SDS011;26316;55.976;37.140;2022-07-03T14:34:42;4.30;;;1.80;;
40609;SDS011;26316;55.976;37.140;2022-07-03T14:37:07;2.03;;;1.92;;
40609;SDS011;26316;55.976;37.140;2022-07-03T14:39:34;4.38;;;2.03;;
40609;SDS011;26316;55.976;37.140;2022-07-03T14:42:00;5.72;;;1.92;;
40609;SDS011;26316;55.976;37.140;2022-07-03T14:44:28;4.05;;;2.30;;
40609;SDS011;26316;55.976;37.140;2022-07-03T14:46:54;4.00;;;1.75;;
40609;SDS011;26316;55.976;37.140;2022-07-03T14:49:21;6.03;;;1.70;;
40609;SDS011;26316;55.976;37.140;2022-07-03T14:51:46;4.00;;;1.75;;
40609;SDS011;26316;55.976;37.140;2022-07-03T14:54:16;2.22;;;1.70;;
40609;SDS011;26316;55.976;37.140;2022-07-03T14:56:51;7.85;;;2.08;;
40609;SDS011;26316;55.976;37.140;2022-07-03T15:02:00;2.08;;;1.98;;
40609;SDS011;26316;55.976;37.140;2022-07-03T15:06:55;2.70;;;2.50;;
40609;SDS011;26316;55.976;37.140;2022-07-03T15:09:25;5.90;;;2.33;;
40609;SDS011;26316;55.976;37.140;2022-07-03T15:11:55;4.07;;;1.90;;
40609;SDS011;26316;55.976;37.140;2022-07-03T15:14:43;5.03;;;2.17;;
40609;SDS011;26316;55.976;37.140;2022-07-03T15:17:09;4.63;;;2.13;;
40609;SDS011;26316;55.976;37.140;2022-07-03T15:19:35;2.47;;;2.20;;
40609;SDS011;26316;55.976;37.140;2022-07-03T15:22:03;2.92;;;2.10;;
40609;SDS011;26316;55.976;37.140;2022-07-03T15:24:30;2.75;;;1.95;;
40609;SDS011;26316;55.976;37.140;2022-07-03T15:26:56;2.88;;;2.00;;
40609;SDS011;26316;55.976;37.140;2022-07-03T15:29:21;4.97;;;1.75;;
40609;SDS011;26316;55.976;37.140;2022-07-03T15:31:47;2.22;;;2.13;;
40609;SDS011;26316;55.976;37.140;2022-07-03T15:34:15;2.85;;;2.45;;
40609;SDS011;26316;55.976;37.140;2022-07-03T15:36:58;6.95;;;1.95;;
40609;SDS011;26316;55.976;37.140;2022-07-03T15:39:39;4.57;;;2.05;;
40609;SDS011;26316;55.976;37.140;2022-07-03T15:42:17;4.70;;;2.10;;
40609;SDS011;26316;55.976;37.140;2022-07-03T15:44:53;3.72;;;2.17;;
40609;SDS011;26316;55.976;37.140;2022-07-03T15:53:13;8.75;;;3.67;;
40609;SDS011;26316;55.976;37.140;2022-07-03T15:55:42;4.03;;;3.27;;
40609;SDS011;26316;55.976;37.140;2022-07-03T15:58:10;3.30;;;2.08;;
40609;SDS011;26316;55.976;37.140;2022-07-03T16:00:38;6.60;;;2.28;;
40609;SDS011;26316;55.976;37.140;2022-07-03T16:03:26;4.67;;;2.10;;
40609;SDS011;26316;55.976;37.140;2022-07-03T16:05:54;3.17;;;2.20;;
40609;SDS011;26316;55.976;37.140;2022-07-03T16:08:21;2.30;;;2.10;;
40609;SDS011;26316;55.976;37.140;2022-07-03T16:10:50;2.90;;;2.10;;
40609;SDS011;26316;55.976;37.140;2022-07-03T16:13:17;4.00;;;2.42;;
40609;SDS011;26316;55.976;37.140;2022-07-03T16:15:45;2.65;;;1.95;;
40609;SDS011;26316;55.976;37.140;2022-07-03T16:18:11;3.40;;;2.22;;
40609;SDS011;26316;55.976;37.140;2022-07-03T16:20:37;7.18;;;2.08;;
40609;SDS011;26316;55.976;37.140;2022-07-03T16:23:04;2.00;;;1.90;;
40609;SDS011;26316;55.976;37.140;2022-07-03T16:25:33;5.43;;;2.35;;
40609;SDS011;26316;55.976;37.140;2022-07-03T16:28:00;1.90;;;1.70;;
40609;SDS011;26316;55.976;37.140;2022-07-03T16:30:30;3.97;;;1.88;;
40609;SDS011;26316;55.976;37.140;2022-07-03T16:32:57;3.97;;;2.05;;
40609;SDS011;26316;55.976;37.140;2022-07-03T16:41:05;4.30;;;2.28;;
40609;SDS011;26316;55.976;37.140;2022-07-03T16:43:31;4.18;;;2.00;;
40609;SDS011;26316;55.976;37.140;2022-07-03T16:45:58;7.90;;;1.85;;